createdAt,value
2022-09-20T00:01:23.285Z,16.60
2022-09-20T00:03:54.965Z,16.16
2022-09-20T00:06:25.578Z,16.24
2022-09-20T00:08:53.720Z,16.94
2022-09-20T00:11:24.036Z,16.94
2022-09-20T00:13:54.635Z,17.08
2022-09-20T00:16:25.142Z,16.46
2022-09-20T00:18:56.779Z,16.84
2022-09-20T00:21:27.068Z,16.46
2022-09-20T00:23:56.740Z,16.47
2022-09-20T00:26:25.187Z,16.69
2022-09-20T00:28:53.714Z,17.28
2022-09-20T00:31:22.291Z,17.11
2022-09-20T00:34:08.267Z,17.06
2022-09-20T00:36:38.076Z,16.35
2022-09-20T00:39:06.383Z,16.83
2022-09-20T00:41:34.739Z,17.16
2022-09-20T00:44:04.030Z,17.10
2022-09-20T00:46:37.217Z,16.60
2022-09-20T00:49:07.942Z,17.18
2022-09-20T00:51:39.242Z,16.50
2022-09-20T00:54:08.838Z,16.83
2022-09-20T00:56:39.123Z,16.60
2022-09-20T00:59:12.839Z,16.96
2022-09-20T01:01:41.529Z,16.95
2022-09-20T01:04:10.143Z,16.67
2022-09-20T01:06:40.069Z,16.89
2022-09-20T01:09:09.119Z,17.55
2022-09-20T01:11:38.339Z,17.28
2022-09-20T01:14:06.686Z,17.59
2022-09-20T01:16:35.604Z,17.56
2022-09-20T01:19:07.270Z,17.25
2022-09-20T01:21:35.864Z,17.61
2022-09-20T01:24:10.739Z,17.05
2022-09-20T01:26:56.578Z,16.56
2022-09-20T01:29:36.980Z,17.23
2022-09-20T01:32:09.634Z,16.85
2022-09-20T01:34:43.067Z,17.17
2022-09-20T01:37:17.637Z,17.65
2022-09-20T01:39:53.647Z,16.96
2022-09-20T01:42:26.625Z,17.32
2022-09-20T01:45:01.844Z,17.29
2022-09-20T01:47:34.728Z,17.31
2022-09-20T01:50:09.400Z,16.99
2022-09-20T01:53:16.031Z,16.95
2022-09-20T01:56:19.978Z,17.36
2022-09-20T01:59:24.702Z,17.42
2022-09-20T02:02:19.473Z,16.92
2022-09-20T02:05:20.486Z,17.51
2022-09-20T02:08:07.851Z,16.83
2022-09-20T02:10:43.026Z,17.19
2022-09-20T02:13:12.714Z,16.15
2022-09-20T02:16:07.588Z,16.33
2022-09-20T02:18:49.072Z,16.54
2022-09-20T02:21:22.981Z,17.07
2022-09-20T02:23:57.928Z,17.09
2022-09-20T02:26:34.964Z,17.35
2022-09-20T02:29:11.448Z,17.47
2022-09-20T02:32:02.013Z,16.88
2022-09-20T02:34:45.613Z,17.13
2022-09-20T02:37:31.556Z,16.68
2022-09-20T02:40:11.351Z,16.58
2022-09-20T02:42:45.131Z,16.47
2022-09-20T02:45:19.940Z,16.66
2022-09-20T02:47:48.819Z,17.28
2022-09-20T02:50:26.439Z,16.89
2022-09-20T02:53:05.829Z,17.14
2022-09-20T02:55:41.120Z,16.75
2022-09-20T02:58:22.404Z,16.97
2022-09-20T03:00:56.054Z,16.99
2022-09-20T03:03:33.153Z,17.00
2022-09-20T03:06:08.490Z,15.94
2022-09-20T03:08:40.858Z,16.75
2022-09-20T03:11:18.697Z,16.28
2022-09-20T03:14:04.298Z,16.60
2022-09-20T03:16:39.132Z,17.13
2022-09-20T03:19:16.730Z,16.82
2022-09-20T03:21:53.472Z,17.43
2022-09-20T03:24:30.395Z,16.69
2022-09-20T03:27:05.563Z,16.49
2022-09-20T03:29:43.751Z,16.48
2022-09-20T03:32:23.633Z,16.16
2022-09-20T03:34:59.190Z,16.63
2022-09-20T03:37:38.791Z,16.54
2022-09-20T03:40:49.142Z,16.43
2022-09-20T03:43:27.506Z,16.94
2022-09-20T03:46:07.525Z,16.54
2022-09-20T03:48:55.840Z,16.33
2022-09-20T03:51:33.824Z,16.54
2022-09-20T03:54:38.246Z,16.75
2022-09-20T03:57:39.074Z,16.45
2022-09-20T04:00:31.095Z,16.67
2022-09-20T04:03:19.032Z,16.02
2022-09-20T04:05:55.164Z,15.44
2022-09-20T04:08:41.805Z,15.99
2022-09-20T04:11:16.817Z,16.15
2022-09-20T04:13:52.341Z,16.14
2022-09-20T04:16:27.787Z,16.16
2022-09-20T04:18:58.590Z,16.04
2022-09-20T04:21:30.556Z,15.86
2022-09-20T04:24:02.785Z,15.06
2022-09-20T04:26:33.047Z,16.10
2022-09-20T04:29:14.363Z,15.95
2022-09-20T04:31:48.862Z,15.84
2022-09-20T04:34:23.840Z,15.75
2022-09-20T04:36:57.653Z,15.89
2022-09-20T04:39:36.902Z,16.20
2022-09-20T04:42:56.119Z,16.05
2022-09-20T04:45:57.320Z,15.55
2022-09-20T04:48:57.031Z,15.79
2022-09-20T04:51:58.319Z,16.12
2022-09-20T04:54:52.700Z,15.76
2022-09-20T04:57:43.213Z,15.62
2022-09-20T05:00:15.009Z,15.30
2022-09-20T05:03:30.102Z,15.27
2022-09-20T05:06:45.059Z,15.92
2022-09-20T05:09:47.136Z,16.12
2022-09-20T05:12:37.259Z,15.81
2022-09-20T05:15:14.088Z,16.36
2022-09-20T05:17:59.645Z,16.28
2022-09-20T05:20:47.713Z,16.09
2022-09-20T05:23:29.071Z,16.16
2022-09-20T05:26:14.095Z,16.19
2022-09-20T05:28:51.743Z,15.60
2022-09-20T05:31:26.321Z,16.33
2022-09-20T05:33:58.381Z,16.00
2022-09-20T05:36:34.754Z,16.34
2022-09-20T05:39:13.306Z,15.28
2022-09-20T05:41:45.193Z,16.37
2022-09-20T05:44:28.542Z,16.36
2022-09-20T05:47:05.157Z,15.79
2022-09-20T05:49:42.701Z,16.34
2022-09-20T05:52:37.111Z,16.28
2022-09-20T05:55:29.937Z,15.71
2022-09-20T05:58:17.438Z,16.69
2022-09-20T06:00:49.692Z,15.88
2022-09-20T06:03:27.173Z,16.96
2022-09-20T06:06:02.503Z,17.02
2022-09-20T06:09:00.489Z,16.82
2022-09-20T06:11:54.983Z,16.91
2022-09-20T06:14:36.235Z,16.33
2022-09-20T06:17:11.995Z,16.59
2022-09-20T06:19:45.502Z,16.72
2022-09-20T06:22:17.729Z,16.29
2022-09-20T06:24:49.682Z,16.29
2022-09-20T06:27:22.210Z,16.36
2022-09-20T06:29:54.328Z,16.65
2022-09-20T06:32:23.303Z,15.66
2022-09-20T06:34:53.110Z,16.49
2022-09-20T06:37:54.885Z,16.41
2022-09-20T06:40:50.457Z,16.29
2022-09-20T06:43:20.458Z,16.81
2022-09-20T06:45:49.519Z,16.86
2022-09-20T06:48:22.191Z,17.03
2022-09-20T06:50:52.426Z,17.84
2022-09-20T06:53:27.913Z,16.64
2022-09-20T06:55:57.069Z,16.63
2022-09-20T06:58:26.853Z,17.63
2022-09-20T07:00:55.285Z,17.98
2022-09-20T07:03:23.750Z,18.30
2022-09-20T07:05:52.084Z,17.76
2022-09-20T07:08:20.434Z,18.98
2022-09-20T07:10:48.808Z,18.33
2022-09-20T07:13:19.211Z,18.27
2022-09-20T07:15:49.032Z,17.66
2022-09-20T07:18:17.544Z,17.32
2022-09-20T07:20:45.857Z,17.97
2022-09-20T07:23:15.816Z,17.76
2022-09-20T07:25:44.208Z,18.33
2022-09-20T07:28:12.586Z,18.95
2022-09-20T07:30:41.035Z,18.91
2022-09-20T07:33:12.077Z,19.23
2022-09-20T07:35:41.709Z,19.03
2022-09-20T07:38:10.381Z,18.28
2022-09-20T07:40:38.811Z,19.02
2022-09-20T07:43:07.790Z,19.17
2022-09-20T07:45:39.091Z,18.24
2022-09-20T07:48:09.610Z,19.40
2022-09-20T07:50:39.329Z,20.14
2022-09-20T07:53:07.652Z,18.93
2022-09-20T07:55:36.018Z,18.46
2022-09-20T07:58:04.362Z,18.34
2022-09-20T08:00:32.823Z,19.43
2022-09-20T08:03:01.425Z,18.65
2022-09-20T08:05:29.853Z,18.85
2022-09-20T08:08:01.080Z,18.63
2022-09-20T08:10:29.401Z,18.28
2022-09-20T08:15:46.198Z,18.63
2022-09-20T08:18:15.794Z,18.07
2022-09-20T08:20:44.154Z,19.65
2022-09-20T08:23:23.343Z,18.90
2022-09-20T08:25:52.506Z,18.77
2022-09-20T08:28:20.782Z,18.48
2022-09-20T08:30:49.098Z,18.89
2022-09-20T08:33:17.500Z,18.79
2022-09-20T08:35:49.662Z,19.17
2022-09-20T08:41:12.654Z,20.51
2022-09-20T08:43:45.563Z,20.00
2022-09-20T08:46:22.899Z,20.13
2022-09-20T08:48:52.212Z,20.65
2022-09-20T08:51:23.211Z,20.63
2022-09-20T08:53:54.622Z,20.58
2022-09-20T08:56:23.535Z,20.27
2022-09-20T08:58:53.383Z,19.95
2022-09-20T09:01:23.792Z,19.82
2022-09-20T09:03:52.697Z,19.30
2022-09-20T09:06:22.775Z,18.65
2022-09-20T09:08:53.688Z,19.22
2022-09-20T09:11:23.547Z,19.30
2022-09-20T09:13:55.150Z,19.87
2022-09-20T09:16:33.513Z,20.30
2022-09-20T09:19:33.330Z,19.86
2022-09-20T09:22:03.211Z,20.58
2022-09-20T09:24:32.969Z,21.15
2022-09-20T09:27:10.298Z,19.77
2022-09-20T09:29:50.556Z,20.02
2022-09-20T09:32:24.646Z,20.56
2022-09-20T09:34:52.903Z,20.19
2022-09-20T09:37:28.865Z,19.25
2022-09-20T09:40:12.859Z,19.24
2022-09-20T09:42:50.235Z,20.72
2022-09-20T09:45:31.523Z,20.71
2022-09-20T09:48:02.276Z,20.42
2022-09-20T09:50:32.079Z,20.18
2022-09-20T09:53:02.933Z,20.70
2022-09-20T09:55:43.457Z,21.35
2022-09-20T09:58:13.136Z,19.95
2022-09-20T10:00:46.625Z,19.49
2022-09-20T10:03:24.168Z,19.21
2022-09-20T10:06:08.232Z,19.39
2022-09-20T10:08:45.843Z,19.48
2022-09-20T10:11:26.033Z,19.59
2022-09-20T10:14:05.539Z,20.18
2022-09-20T10:16:58.184Z,20.17
2022-09-20T10:19:39.164Z,20.60
2022-09-20T10:22:11.246Z,21.67
2022-09-20T10:24:51.393Z,21.12
2022-09-20T10:27:31.497Z,21.10
2022-09-20T10:30:06.327Z,21.25
2022-09-20T10:32:47.473Z,21.53
2022-09-20T10:35:24.192Z,19.88
2022-09-20T10:38:01.351Z,20.08
2022-09-20T10:40:48.227Z,20.81
2022-09-20T10:43:30.718Z,20.86
2022-09-20T10:46:31.426Z,19.43
2022-09-20T10:49:02.886Z,20.45
2022-09-20T10:51:41.659Z,20.94
2022-09-20T10:54:21.176Z,21.68
2022-09-20T10:56:52.873Z,21.54
2022-09-20T10:59:31.597Z,21.71
2022-09-20T11:02:18.660Z,21.56
2022-09-20T11:04:58.917Z,21.32
2022-09-20T11:07:36.950Z,21.22
2022-09-20T11:10:09.119Z,21.12
2022-09-20T11:12:39.626Z,21.53
2022-09-20T11:15:15.869Z,21.52
2022-09-20T11:17:47.126Z,21.35
2022-09-20T11:20:20.830Z,21.68
2022-09-20T11:22:51.195Z,21.23
2022-09-20T11:25:27.328Z,22.23
2022-09-20T11:28:02.328Z,22.32
2022-09-20T11:30:34.712Z,22.22
2022-09-20T11:33:06.139Z,21.31
2022-09-20T11:35:36.190Z,22.26
2022-09-20T11:38:14.470Z,22.07
2022-09-20T11:40:47.429Z,22.39
2022-09-20T11:43:17.040Z,22.30
2022-09-20T11:45:49.585Z,21.86
2022-09-20T11:48:25.175Z,21.84
2022-09-20T11:51:18.172Z,21.57
2022-09-20T11:53:59.791Z,22.16
2022-09-20T11:56:30.996Z,22.08
2022-09-20T11:59:00.907Z,21.18
2022-09-20T12:01:32.607Z,20.38
2022-09-20T12:04:30.656Z,21.72
2022-09-20T12:07:02.452Z,20.23
2022-09-20T12:09:36.799Z,21.99
2022-09-20T12:12:20.580Z,21.45
2022-09-20T12:14:55.433Z,21.21
2022-09-20T12:18:09.757Z,20.82
2022-09-20T12:21:02.321Z,21.10
2022-09-20T12:24:01.863Z,21.93
2022-09-20T12:26:45.269Z,21.44
2022-09-20T12:29:53.316Z,22.25
2022-09-20T12:32:42.522Z,20.84
2022-09-20T12:37:55.637Z,20.25
2022-09-20T12:40:26.083Z,21.06
2022-09-20T12:42:57.883Z,21.36
2022-09-20T12:45:26.323Z,21.14
2022-09-20T12:47:55.972Z,22.20
2022-09-20T12:50:42.050Z,21.65
2022-09-20T12:53:15.292Z,21.47
2022-09-20T12:55:55.116Z,21.21
2022-09-20T12:58:26.918Z,21.27
2022-09-20T13:01:29.531Z,21.02
2022-09-20T13:04:32.415Z,21.22
2022-09-20T13:07:43.994Z,21.83
2022-09-20T13:10:29.237Z,22.28
2022-09-20T13:13:03.498Z,21.66
2022-09-20T13:15:33.264Z,21.96
2022-09-20T13:18:03.293Z,22.14
2022-09-20T13:20:35.201Z,22.54
2022-09-20T13:23:05.436Z,22.54
2022-09-20T13:25:35.666Z,21.62
2022-09-20T13:28:09.790Z,21.35
2022-09-20T13:30:40.704Z,21.63
2022-09-20T13:33:23.499Z,22.30
2022-09-20T13:35:54.645Z,22.31
2022-09-20T13:38:30.140Z,22.05
2022-09-20T13:41:06.344Z,22.39
2022-09-20T13:43:38.239Z,22.20
2022-09-20T13:46:12.072Z,21.91
2022-09-20T13:48:41.139Z,22.06
2022-09-20T13:51:19.325Z,21.32
2022-09-20T13:53:48.502Z,20.49
2022-09-20T13:56:22.485Z,20.63
2022-09-20T13:58:51.485Z,20.16
2022-09-20T14:01:25.722Z,20.27
2022-09-20T14:03:54.586Z,20.45
2022-09-20T14:06:28.116Z,19.94
2022-09-20T14:08:57.744Z,20.07
2022-09-20T14:11:28.635Z,20.46
2022-09-20T14:13:58.299Z,20.61
2022-09-20T14:16:31.008Z,19.66
2022-09-20T14:19:00.235Z,19.49
2022-09-20T14:21:29.705Z,18.41
2022-09-20T14:24:02.245Z,18.97
2022-09-20T14:26:34.777Z,19.00
2022-09-20T14:29:30.641Z,18.74
2022-09-20T14:32:00.283Z,19.06
2022-09-20T14:34:28.830Z,19.57
2022-09-20T14:37:13.525Z,20.00
2022-09-20T14:39:48.856Z,20.71
2022-09-20T14:42:30.120Z,20.88
2022-09-20T14:44:58.635Z,21.08
2022-09-20T14:47:28.510Z,21.14
2022-09-20T14:49:58.094Z,21.40
2022-09-20T14:52:37.518Z,21.69
2022-09-20T14:55:19.260Z,21.51
2022-09-20T14:57:49.428Z,21.68
2022-09-20T15:00:20.653Z,21.86
2022-09-20T15:02:48.994Z,21.91
2022-09-20T15:05:20.638Z,21.45
2022-09-20T15:07:49.047Z,21.02
2022-09-20T15:10:17.570Z,20.83
2022-09-20T15:12:46.074Z,20.76
2022-09-20T15:15:17.476Z,20.74
2022-09-20T15:17:46.971Z,20.69
2022-09-20T15:20:23.226Z,20.14
2022-09-20T15:22:52.803Z,20.44
2022-09-20T15:25:22.735Z,20.66
2022-09-20T15:27:51.899Z,20.77
2022-09-20T15:30:22.395Z,20.85
2022-09-20T15:32:50.774Z,20.16
2022-09-20T15:35:19.488Z,19.98
2022-09-20T15:37:47.871Z,20.01
2022-09-20T15:40:16.631Z,20.03
2022-09-20T15:42:45.926Z,19.52
2022-09-20T15:45:14.854Z,19.35
2022-09-20T15:47:44.731Z,18.70
2022-09-20T15:50:13.068Z,18.62
2022-09-20T15:52:41.625Z,18.72
2022-09-20T15:55:12.019Z,18.60
2022-09-20T15:57:41.964Z,18.20
2022-09-20T16:00:11.146Z,17.96
2022-09-20T16:02:39.482Z,17.73
2022-09-20T16:05:10.995Z,18.31
2022-09-20T16:07:39.323Z,18.54
2022-09-20T16:10:08.900Z,18.92
2022-09-20T16:12:37.193Z,19.14
2022-09-20T16:15:06.251Z,19.35
2022-09-20T16:39:09.058Z,21.17
2022-09-20T16:41:39.151Z,21.09
2022-09-20T16:44:08.039Z,21.35
